Time;durP1;ratioP1;P1;durP2;ratioP2;P2;SDS_P1;SDS_P2;PMS_P1;PMS_P2;Temp;Humidity;BMP_temperature;BMP_pressure;BME280_temperature;BME280_humidity;BME280_pressure;Samples;Min_cycle;Max_cycle;Signal;HPM_P1;HPM_P2
2023/03/29 00:01:32;;;;;;;13.55;5.05;;;9.10;99.90;;;;;;5099401;28;20048;-82
2023/03/29 00:04:01;;;;;;;17.00;5.82;;;9.20;99.90;;;;;;5082085;28;20047;-82
2023/03/29 00:06:31;;;;;;;12.32;5.03;;;9.20;99.90;;;;;;5099485;28;20438;-82
2023/03/29 00:08:58;;;;;;;16.25;4.97;;;9.20;99.90;;;;;;5097074;28;20493;-82
2023/03/29 00:11:26;;;;;;;15.18;4.95;;;9.20;99.90;;;;;;5099223;28;20046;-82
2023/03/29 00:13:52;;;;;;;13.07;5.40;;;9.20;99.90;;;;;;5099471;28;20142;-82
2023/03/29 00:16:19;;;;;;;12.25;4.55;;;9.30;99.90;;;;;;5098179;28;20039;-81
2023/03/29 00:18:46;;;;;;;13.18;5.10;;;9.30;99.90;;;;;;5082776;28;20047;-82
2023/03/29 00:21:12;;;;;;;12.57;4.15;;;9.30;99.90;;;;;;5082014;28;20099;-82
2023/03/29 00:23:39;;;;;;;12.02;4.82;;;9.30;99.90;;;;;;5116152;28;20064;-82
2023/03/29 00:26:06;;;;;;;12.05;4.70;;;9.30;99.90;;;;;;5117097;28;20104;-82
2023/03/29 00:28:34;;;;;;;10.70;4.82;;;9.30;99.90;;;;;;5117049;28;20036;-82
2023/03/29 00:31:01;;;;;;;10.50;4.32;;;9.30;99.90;;;;;;5080801;28;20386;-82
2023/03/29 00:33:27;;;;;;;12.82;4.57;;;9.30;99.90;;;;;;5082202;28;20138;-82
2023/03/29 00:35:54;;;;;;;10.68;3.92;;;9.30;99.90;;;;;;5097942;28;20047;-82
2023/03/29 00:38:21;;;;;;;13.70;4.32;;;9.30;99.90;;;;;;5099264;28;20132;-82
2023/03/29 00:40:47;;;;;;;12.45;4.25;;;9.30;99.90;;;;;;5116524;28;20039;-82
2023/03/29 00:43:14;;;;;;;13.88;4.60;;;9.30;99.90;;;;;;5097881;28;20058;-82
2023/03/29 00:45:41;;;;;;;13.60;4.97;;;9.30;99.90;;;;;;5116947;28;20110;-82
2023/03/29 00:48:08;;;;;;;9.18;3.50;;;9.30;99.90;;;;;;5098713;28;20047;-82
2023/03/29 00:50:35;;;;;;;11.88;4.38;;;9.30;99.90;;;;;;5097749;28;20462;-82
2023/03/29 00:53:02;;;;;;;12.77;4.43;;;9.40;99.90;;;;;;5098834;28;20067;-82
2023/03/29 00:55:29;;;;;;;14.52;4.20;;;9.40;99.90;;;;;;5097195;28;20052;-82
2023/03/29 00:57:56;;;;;;;11.77;3.55;;;9.40;99.90;;;;;;5116515;28;20411;-82
2023/03/29 01:00:22;;;;;;;9.07;3.42;;;9.40;99.90;;;;;;5098594;28;20466;-82
2023/03/29 01:02:49;;;;;;;9.70;4.38;;;9.40;99.90;;;;;;5096941;28;20399;-82
2023/03/29 01:05:17;;;;;;;10.85;3.90;;;9.40;99.90;;;;;;5098321;28;20432;-82
2023/03/29 01:07:46;;;;;;;10.20;4.07;;;9.40;99.90;;;;;;5081494;28;20063;-82
2023/03/29 01:10:14;;;;;;;11.82;3.90;;;9.40;99.90;;;;;;5080338;28;20154;-82
2023/03/29 01:12:41;;;;;;;9.90;3.60;;;9.40;99.90;;;;;;5081001;28;20054;-82
2023/03/29 01:15:07;;;;;;;9.73;3.78;;;9.50;99.90;;;;;;5098214;28;20040;-82
2023/03/29 01:17:34;;;;;;;10.93;4.07;;;9.40;99.90;;;;;;5096999;28;20120;-82
2023/03/29 01:20:06;;;;;;;10.20;3.83;;;9.40;99.90;;;;;;5081224;28;20057;-82
2023/03/29 01:22:37;;;;;;;10.70;3.95;;;9.40;99.90;;;;;;5096090;28;20079;-81
2023/03/29 01:25:04;;;;;;;12.60;4.18;;;9.40;99.90;;;;;;5081267;28;20044;-82
2023/03/29 01:27:31;;;;;;;11.45;4.18;;;9.40;99.90;;;;;;5081205;28;20039;-82
2023/03/29 01:29:59;;;;;;;11.02;4.40;;;9.40;99.90;;;;;;5080091;28;20055;-82
2023/03/29 01:32:25;;;;;;;9.15;4.20;;;9.40;99.90;;;;;;5115382;28;20048;-82
2023/03/29 01:34:52;;;;;;;10.02;4.30;;;9.40;99.90;;;;;;5115754;28;20049;-82
2023/03/29 01:37:19;;;;;;;11.93;4.32;;;9.50;99.90;;;;;;5096527;28;20051;-82
2023/03/29 01:39:45;;;;;;;10.30;4.45;;;9.50;99.90;;;;;;5097756;28;20047;-82
2023/03/29 01:42:12;;;;;;;9.23;3.92;;;9.50;99.90;;;;;;5079443;28;20573;-82
2023/03/29 01:44:39;;;;;;;9.27;3.70;;;9.50;99.90;;;;;;5115710;28;20035;-82
2023/03/29 01:47:06;;;;;;;11.20;3.92;;;9.50;99.90;;;;;;5080782;28;20066;-82
2023/03/29 01:49:33;;;;;;;9.38;3.78;;;9.50;99.90;;;;;;5096440;28;20058;-82
2023/03/29 01:52:00;;;;;;;10.18;4.15;;;9.50;99.90;;;;;;5080293;28;20062;-82
2023/03/29 01:54:26;;;;;;;10.35;4.45;;;9.50;99.90;;;;;;5097522;28;20461;-82
2023/03/29 01:56:55;;;;;;;10.25;3.90;;;9.50;99.90;;;;;;5096054;28;20079;-82
2023/03/29 01:59:22;;;;;;;10.55;3.97;;;9.40;99.90;;;;;;5080525;28;20082;-82
2023/03/29 02:01:49;;;;;;;11.68;4.15;;;9.50;99.90;;;;;;5114895;28;20044;-82
2023/03/29 02:04:16;;;;;;;9.93;4.03;;;9.50;99.90;;;;;;5096576;28;20036;-82
2023/03/29 02:06:43;;;;;;;10.02;3.70;;;9.50;99.90;;;;;;5115220;28;20043;-82
2023/03/29 02:09:11;;;;;;;9.43;3.58;;;9.50;99.90;;;;;;5096686;28;20039;-82
2023/03/29 02:11:38;;;;;;;12.45;3.95;;;9.50;99.90;;;;;;5080023;28;20048;-82
2023/03/29 02:14:05;;;;;;;10.27;3.70;;;9.40;99.90;;;;;;5114694;28;20480;-82
2023/03/29 02:16:34;;;;;;;10.35;3.88;;;9.40;99.90;;;;;;5079489;28;20067;-82
2023/03/29 02:19:00;;;;;;;9.23;3.55;;;9.40;99.90;;;;;;5115321;28;20123;-82
2023/03/29 02:21:27;;;;;;;9.32;3.78;;;9.40;99.90;;;;;;5096760;28;20036;-82
2023/03/29 02:23:54;;;;;;;9.32;3.92;;;9.30;99.90;;;;;;5095921;28;20075;-82
2023/03/29 02:26:21;;;;;;;11.50;4.05;;;9.30;99.90;;;;;;5097134;28;20067;-82
2023/03/29 02:28:47;;;;;;;9.55;3.72;;;9.20;99.90;;;;;;5079271;28;20043;-81
2023/03/29 02:31:14;;;;;;;9.38;3.33;;;9.30;99.90;;;;;;5096616;28;20039;-82
2023/03/29 02:33:41;;;;;;;8.90;3.67;;;9.20;99.90;;;;;;5100841;28;20067;-82
2023/03/29 02:36:09;;;;;;;10.05;3.58;;;9.20;99.90;;;;;;5100278;28;20118;-81
2023/03/29 02:38:37;;;;;;;10.75;4.15;;;9.20;99.90;;;;;;5100184;28;20052;-82
2023/03/29 02:41:04;;;;;;;8.68;3.38;;;9.20;99.90;;;;;;5099173;28;20160;-82
2023/03/29 02:43:31;;;;;;;13.27;3.85;;;9.20;99.90;;;;;;5100333;28;20036;-82
2023/03/29 02:45:57;;;;;;;9.82;3.63;;;9.30;99.90;;;;;;5101032;28;20031;-82
2023/03/29 02:48:24;;;;;;;9.15;3.83;;;9.30;99.90;;;;;;5101153;28;20039;-82
2023/03/29 02:50:51;;;;;;;11.13;4.00;;;9.30;99.90;;;;;;5099561;28;20138;-82
2023/03/29 02:53:18;;;;;;;9.77;3.55;;;9.30;99.90;;;;;;5100734;28;20428;-82
2023/03/29 02:55:46;;;;;;;8.98;3.20;;;9.40;99.90;;;;;;5099683;28;20051;-82
2023/03/29 02:58:14;;;;;;;9.13;3.95;;;9.40;99.90;;;;;;5100893;28;20051;-82
2023/03/29 03:00:41;;;;;;;10.70;3.45;;;9.40;99.90;;;;;;5100230;28;20040;-82
2023/03/29 03:03:09;;;;;;;10.18;4.07;;;9.40;99.90;;;;;;5099750;28;20048;-83
2023/03/29 03:05:38;;;;;;;9.40;3.30;;;9.40;99.90;;;;;;5084371;28;20043;-83
2023/03/29 03:08:06;;;;;;;10.52;3.92;;;9.50;99.90;;;;;;5100752;28;20048;-82
2023/03/29 03:10:33;;;;;;;9.55;3.75;;;9.50;99.90;;;;;;5099298;28;20442;-82
2023/03/29 03:13:00;;;;;;;13.15;3.85;;;9.50;99.90;;;;;;5118390;28;20148;-82
2023/03/29 03:15:29;;;;;;;11.50;3.80;;;9.50;99.90;;;;;;5099728;28;20488;-82
2023/03/29 03:17:56;;;;;;;9.63;3.65;;;9.50;99.90;;;;;;5100618;28;20124;-82
2023/03/29 03:20:23;;;;;;;12.30;4.75;;;9.60;99.90;;;;;;5100341;28;20078;-82
2023/03/29 03:22:50;;;;;;;12.13;4.30;;;9.60;99.90;;;;;;5099257;28;20069;-81
2023/03/29 03:25:21;;;;;;;12.57;4.50;;;9.60;99.90;;;;;;5100197;28;20035;-82
2023/03/29 03:27:49;;;;;;;10.52;4.20;;;9.60;99.90;;;;;;5100300;28;20044;-83
2023/03/29 03:30:19;;;;;;;12.27;4.30;;;9.70;99.90;;;;;;5082528;28;20439;-81
2023/03/29 03:32:49;;;;;;;14.52;4.63;;;9.70;99.90;;;;;;5100886;28;20052;-82
2023/03/29 03:35:38;;;;;;;13.88;3.95;;;9.70;99.90;;;;;;5074449;28;20059;-82
2023/03/29 03:38:06;;;;;;;10.45;3.97;;;9.70;99.90;;;;;;5099885;28;20039;-82
2023/03/29 03:40:33;;;;;;;10.32;4.15;;;9.80;99.90;;;;;;5099723;28;20104;-82
2023/03/29 03:42:59;;;;;;;14.73;4.45;;;9.80;99.90;;;;;;5081906;28;20046;-81
2023/03/29 03:45:26;;;;;;;12.55;4.53;;;9.70;99.90;;;;;;5099934;28;20044;-81
2023/03/29 03:48:14;;;;;;;10.32;3.90;;;9.80;99.90;;;;;;5099632;28;20058;-81
2023/03/29 03:51:13;;;;;;;11.95;4.25;;;9.70;99.90;;;;;;5083338;28;20417;-82
2023/03/29 03:53:40;;;;;;;8.95;3.72;;;9.80;99.90;;;;;;5082932;28;20047;-82
2023/03/29 03:56:15;;;;;;;11.15;4.38;;;9.80;99.90;;;;;;5100310;28;20051;-81
2023/03/29 03:59:04;;;;;;;14.90;4.53;;;9.70;99.90;;;;;;5102287;28;20040;-82
2023/03/29 04:01:55;;;;;;;11.13;4.40;;;9.70;99.90;;;;;;5099295;28;20058;-81
2023/03/29 04:04:23;;;;;;;11.48;4.70;;;9.70;99.90;;;;;;5099289;28;20039;-82
2023/03/29 04:07:03;;;;;;;11.45;3.83;;;9.70;99.90;;;;;;5084663;28;20039;-82
2023/03/29 04:09:30;;;;;;;12.32;3.90;;;9.70;99.90;;;;;;5116519;28;20048;-82
2023/03/29 04:12:12;;;;;;;11.52;4.25;;;9.70;99.90;;;;;;5084666;28;20054;-82
2023/03/29 04:14:40;;;;;;;10.77;3.90;;;9.70;99.90;;;;;;5099460;28;20134;-81
2023/03/29 04:17:14;;;;;;;12.55;4.35;;;9.70;99.90;;;;;;5098168;28;20120;-81
2023/03/29 04:19:56;;;;;;;10.25;4.00;;;9.70;99.90;;;;;;5099289;28;20448;-81
2023/03/29 04:22:25;;;;;;;12.13;4.68;;;9.70;99.90;;;;;;5080846;28;20109;-81
2023/03/29 04:24:52;;;;;;;11.35;4.32;;;9.70;99.90;;;;;;5099034;28;20046;-81
2023/03/29 04:27:28;;;;;;;13.38;4.32;;;9.70;99.90;;;;;;5100712;28;20058;-81
2023/03/29 04:29:56;;;;;;;13.25;5.10;;;9.70;99.90;;;;;;5098035;28;20366;-81
2023/03/29 04:32:38;;;;;;;14.02;5.20;;;9.70;99.90;;;;;;5099309;28;20113;-81
2023/03/29 04:35:07;;;;;;;11.73;4.53;;;9.70;99.90;;;;;;5082559;28;20043;-81
2023/03/29 04:37:34;;;;;;;10.48;4.70;;;9.70;99.90;;;;;;5097878;28;20040;-81
2023/03/29 04:40:03;;;;;;;10.95;4.40;;;9.60;99.90;;;;;;5098973;28;20070;-81
2023/03/29 04:42:43;;;;;;;12.90;3.83;;;9.60;99.90;;;;;;5073242;28;20431;-81
2023/03/29 04:45:09;;;;;;;15.93;5.15;;;9.60;99.90;;;;;;5068746;28;20082;-81
2023/03/29 04:47:55;;;;;;;13.23;4.95;;;9.60;99.90;;;;;;5078410;28;20489;-81
2023/03/29 04:50:22;;;;;;;14.07;4.28;;;9.60;99.90;;;;;;5057755;28;20049;-81
2023/03/29 04:52:49;;;;;;;15.30;4.75;;;9.60;99.90;;;;;;5041410;28;20040;-81
2023/03/29 04:55:16;;;;;;;12.20;4.30;;;9.60;99.90;;;;;;5057354;28;20052;-81
2023/03/29 04:57:54;;;;;;;13.05;4.93;;;9.60;99.90;;;;;;5043215;28;20133;-82
2023/03/29 05:00:34;;;;;;;14.80;4.88;;;9.60;99.90;;;;;;5047806;28;20044;-82
2023/03/29 05:03:14;;;;;;;17.02;4.60;;;9.60;99.90;;;;;;5076918;28;20052;-82
2023/03/29 05:06:01;;;;;;;11.35;3.97;;;9.60;99.90;;;;;;5080746;28;20052;-82
2023/03/29 05:08:28;;;;;;;12.43;4.00;;;9.60;99.90;;;;;;5078281;28;20462;-81
2023/03/29 05:11:07;;;;;;;10.63;3.75;;;9.60;99.90;;;;;;5077728;28;20047;-82
2023/03/29 05:13:34;;;;;;;14.32;4.30;;;9.60;99.90;;;;;;5077499;28;20044;-82
2023/03/29 05:16:01;;;;;;;13.15;3.70;;;9.60;99.90;;;;;;5076733;28;20473;-81
2023/03/29 05:18:28;;;;;;;14.93;4.65;;;9.60;99.90;;;;;;5095697;28;20036;-81
2023/03/29 05:20:55;;;;;;;13.50;4.10;;;9.50;99.90;;;;;;5078196;28;20031;-81
2023/03/29 05:23:22;;;;;;;12.55;3.50;;;9.50;99.90;;;;;;5076371;28;20040;-81
2023/03/29 05:26:08;;;;;;;12.25;3.65;;;9.50;99.90;;;;;;5080571;28;20472;-81
2023/03/29 05:28:38;;;;;;;11.52;3.65;;;9.40;99.90;;;;;;5077363;28;20074;-81
2023/03/29 05:31:06;;;;;;;13.85;4.20;;;9.40;99.90;;;;;;5077633;28;20470;-81
2023/03/29 05:33:35;;;;;;;12.82;3.90;;;9.40;99.90;;;;;;5077219;28;20131;-82
2023/03/29 05:36:03;;;;;;;9.60;3.95;;;9.40;99.90;;;;;;5076563;28;20047;-81
2023/03/29 05:38:31;;;;;;;11.10;3.95;;;9.40;99.90;;;;;;5077288;28;20039;-81
2023/03/29 05:40:58;;;;;;;14.68;4.00;;;9.40;99.90;;;;;;5077406;28;20040;-81
2023/03/29 05:44:03;;;;;;;13.00;4.07;;;9.30;99.90;;;;;;5081735;28;20054;-83
2023/03/29 05:46:30;;;;;;;13.80;4.20;;;9.30;99.90;;;;;;5060863;28;20047;-83
2023/03/29 05:49:01;;;;;;;18.38;5.00;;;9.30;99.90;;;;;;5060436;28;20539;-83
2023/03/29 05:52:01;;;;;;;13.27;3.90;;;9.30;99.90;;;;;;5071652;28;20067;-83
2023/03/29 05:54:29;;;;;;;11.40;3.92;;;9.30;99.90;;;;;;5077196;28;20478;-83
2023/03/29 05:57:00;;;;;;;12.60;4.68;;;9.30;99.90;;;;;;5059916;28;20432;-82
2023/03/29 05:59:28;;;;;;;10.55;4.13;;;9.30;99.90;;;;;;5095000;28;20040;-83
2023/03/29 06:01:55;;;;;;;13.45;3.90;;;9.30;99.90;;;;;;5076494;28;20054;-83
2023/03/29 06:04:23;;;;;;;11.90;3.15;;;9.40;99.90;;;;;;5059910;28;20048;-83
2023/03/29 06:07:05;;;;;;;9.10;3.33;;;9.40;99.90;;;;;;5063057;28;20040;-83
2023/03/29 06:09:32;;;;;;;9.50;3.22;;;9.40;99.90;;;;;;5076323;28;20047;-83
2023/03/29 06:12:02;;;;;;;9.82;3.78;;;9.50;99.90;;;;;;5060428;28;20036;-81
2023/03/29 06:14:39;;;;;;;12.18;4.13;;;9.50;99.90;;;;;;5076590;28;20044;-83
2023/03/29 06:17:21;;;;;;;11.95;3.55;;;9.60;99.90;;;;;;5076078;28;20040;-83
2023/03/29 06:19:47;;;;;;;11.75;4.05;;;9.60;99.90;;;;;;5076885;28;20044;-83
2023/03/29 06:22:16;;;;;;;14.75;4.03;;;9.70;99.90;;;;;;5059117;28;20036;-82
2023/03/29 06:24:43;;;;;;;12.98;3.40;;;9.70;99.90;;;;;;5076716;28;20040;-81
2023/03/29 06:27:20;;;;;;;13.15;3.80;;;9.70;99.90;;;;;;5077063;28;20140;-83
2023/03/29 06:29:47;;;;;;;11.10;3.15;;;9.70;99.90;;;;;;5076017;28;20116;-81
2023/03/29 06:32:14;;;;;;;11.43;3.60;;;9.80;99.90;;;;;;5076478;28;20048;-83
2023/03/29 06:34:46;;;;;;;14.23;3.85;;;9.90;99.90;;;;;;5076879;28;20048;-83
2023/03/29 06:37:22;;;;;;;12.05;3.58;;;9.90;99.90;;;;;;5075558;28;20036;-81
2023/03/29 06:39:58;;;;;;;8.88;3.08;;;10.00;99.90;;;;;;5076842;28;20044;-82
2023/03/29 06:42:31;;;;;;;13.43;3.40;;;10.10;99.90;;;;;;5075496;28;20386;-81
2023/03/29 06:45:30;;;;;;;15.93;4.15;;;10.20;99.90;;;;;;5038965;28;20048;-81
2023/03/29 06:47:59;;;;;;;9.38;3.25;;;10.30;99.90;;;;;;5049813;28;20432;-80
2023/03/29 06:50:26;;;;;;;14.95;3.45;;;10.30;99.90;;;;;;5074991;28;20044;-83
2023/03/29 06:53:02;;;;;;;12.63;3.75;;;10.30;99.90;;;;;;5076043;28;20045;-83
2023/03/29 06:55:30;;;;;;;13.63;3.50;;;10.40;99.90;;;;;;5055282;28;20056;-83
2023/03/29 06:58:07;;;;;;;14.77;3.55;;;10.40;99.90;;;;;;5065775;28;20044;-83
2023/03/29 07:00:36;;;;;;;10.18;3.33;;;10.50;99.90;;;;;;5039097;28;20040;-84
2023/03/29 07:03:19;;;;;;;8.07;3.50;;;10.50;99.90;;;;;;5039743;28;20502;-84
2023/03/29 07:05:50;;;;;;;12.55;3.80;;;10.50;99.90;;;;;;5039690;28;20526;-83
2023/03/29 07:08:19;;;;;;;13.75;3.25;;;10.60;99.90;;;;;;5072450;28;20139;-83
2023/03/29 07:10:57;;;;;;;9.00;3.47;;;10.60;99.90;;;;;;5054430;28;20118;-83
2023/03/29 07:13:31;;;;;;;10.98;3.65;;;10.60;99.90;;;;;;5072783;28;20371;-83
2023/03/29 07:16:01;;;;;;;10.90;3.47;;;10.50;99.90;;;;;;5054740;28;20044;-85
2023/03/29 07:18:50;;;;;;;11.40;3.53;;;10.50;99.90;;;;;;5074859;28;20051;-84
2023/03/29 07:21:40;;;;;;;9.05;3.00;;;10.60;99.90;;;;;;5076721;28;20051;-84
2023/03/29 07:24:07;;;;;;;11.77;3.53;;;10.50;99.90;;;;;;5074852;28;20037;-84
2023/03/29 07:26:36;;;;;;;8.68;3.25;;;10.50;99.90;;;;;;5076171;28;20106;-84
2023/03/29 07:29:02;;;;;;;12.32;3.42;;;10.50;99.90;;;;;;5058921;28;20472;-83
2023/03/29 07:31:29;;;;;;;11.20;2.90;;;10.50;99.90;;;;;;5075755;28;20052;-84
2023/03/29 07:34:16;;;;;;;10.95;3.63;;;10.40;99.90;;;;;;5076429;28;20048;-83
2023/03/29 07:36:44;;;;;;;9.50;3.00;;;10.50;99.90;;;;;;5058293;28;20135;-84
2023/03/29 07:39:14;;;;;;;9.63;3.08;;;10.50;99.90;;;;;;5079259;28;20369;-84
2023/03/29 07:41:53;;;;;;;10.23;3.25;;;10.60;99.90;;;;;;5063074;28;20078;-82
2023/03/29 07:44:20;;;;;;;10.40;3.15;;;10.70;99.90;;;;;;5057565;28;20041;-84
2023/03/29 07:46:47;;;;;;;9.63;2.80;;;10.80;99.90;;;;;;5059453;28;20532;-83
2023/03/29 07:49:14;;;;;;;8.60;2.85;;;10.80;99.90;;;;;;5058470;28;20052;-83
2023/03/29 07:51:41;;;;;;;9.05;2.50;;;10.90;99.90;;;;;;5059343;28;20079;-83
2023/03/29 07:54:10;;;;;;;8.70;2.40;;;11.00;99.90;;;;;;5043142;28;20136;-82
2023/03/29 07:56:46;;;;;;;7.80;2.17;;;11.00;99.90;;;;;;5073489;28;20059;-82
2023/03/29 07:59:31;;;;;;;8.45;2.22;;;11.00;99.90;;;;;;5097356;28;20059;-82
2023/03/29 08:02:07;;;;;;;7.25;2.45;;;11.00;99.90;;;;;;5078175;28;20101;-82
2023/03/29 08:04:37;;;;;;;9.70;2.65;;;11.00;99.90;;;;;;5097031;28;20033;-82
2023/03/29 08:07:17;;;;;;;7.03;2.30;;;11.10;99.90;;;;;;5081058;28;20383;-82
2023/03/29 08:09:59;;;;;;;9.20;2.60;;;11.20;99.90;;;;;;5096240;28;20088;-81
2023/03/29 08:12:52;;;;;;;7.10;1.95;;;11.30;99.90;;;;;;5065791;28;20040;-81
2023/03/29 08:15:26;;;;;;;7.55;2.42;;;11.30;99.90;;;;;;5078454;28;20055;-81
2023/03/29 08:17:53;;;;;;;10.85;2.70;;;11.40;99.90;;;;;;5080233;28;20511;-83
2023/03/29 08:20:21;;;;;;;9.68;2.22;;;11.40;99.90;;;;;;5063303;28;20040;-81
2023/03/29 08:22:50;;;;;;;7.88;2.50;;;11.40;99.90;;;;;;5077578;28;20474;-83
2023/03/29 08:25:17;;;;;;;9.27;2.53;;;11.50;99.90;;;;;;5097087;28;20109;-85
2023/03/29 08:27:49;;;;;;;8.40;2.33;;;11.50;99.90;;;;;;5061255;28;20105;-83
2023/03/29 08:30:26;;;;;;;7.88;2.50;;;11.60;99.90;;;;;;5061153;28;20059;-84
2023/03/29 08:32:55;;;;;;;6.00;2.05;;;11.60;99.90;;;;;;5078241;28;20137;-83
2023/03/29 08:35:22;;;;;;;6.65;2.40;;;11.60;99.90;;;;;;5060600;28;20040;-84
2023/03/29 08:38:07;;;;;;;7.72;2.50;;;11.50;99.90;;;;;;5073749;28;20214;-84
2023/03/29 08:40:34;;;;;;;12.60;2.38;;;11.50;99.90;;;;;;5089007;28;20123;-85
2023/03/29 08:43:11;;;;;;;6.63;2.30;;;11.40;99.90;;;;;;5058992;28;20386;-85
2023/03/29 08:45:58;;;;;;;7.75;2.42;;;11.40;99.90;;;;;;5081021;28;20399;-85
2023/03/29 08:48:27;;;;;;;9.13;2.55;;;11.40;99.90;;;;;;5077863;28;20134;-85
2023/03/29 08:50:54;;;;;;;8.23;2.58;;;11.40;99.90;;;;;;5076913;28;20042;-85
2023/03/29 08:53:22;;;;;;;6.60;2.20;;;11.40;99.90;;;;;;5078216;28;20059;-85
2023/03/29 08:56:09;;;;;;;7.03;2.20;;;11.40;99.90;;;;;;5079495;28;20044;-85
2023/03/29 08:59:23;;;;;;;6.60;2.45;;;11.40;99.90;;;;;;4994627;28;20413;-85
2023/03/29 09:02:04;;;;;;;8.07;2.10;;;11.50;99.90;;;;;;4993402;28;20061;-86
2023/03/29 09:04:31;;;;;;;7.47;2.53;;;11.50;99.90;;;;;;5048367;28;20044;-87
2023/03/29 09:07:33;;;;;;;7.25;1.98;;;11.60;99.90;;;;;;5063063;28;20047;-85
2023/03/29 09:10:05;;;;;;;8.57;2.30;;;11.60;99.90;;;;;;5071341;28;20062;-85
2023/03/29 09:12:37;;;;;;;6.35;2.20;;;11.70;99.90;;;;;;5077314;28;20374;-83
2023/03/29 09:15:05;;;;;;;8.32;2.20;;;11.70;99.90;;;;;;5077481;28;20139;-84
2023/03/29 09:17:33;;;;;;;6.55;2.00;;;11.80;99.90;;;;;;5059199;28;20040;-85
2023/03/29 09:20:05;;;;;;;4.45;1.65;;;11.80;99.90;;;;;;5076920;28;20036;-85
2023/03/29 09:22:32;;;;;;;5.53;1.60;;;11.80;99.90;;;;;;5058953;28;20504;-84
2023/03/29 09:24:59;;;;;;;3.90;1.50;;;11.90;99.90;;;;;;5077378;28;20387;-84
2023/03/29 09:27:31;;;;;;;4.57;1.65;;;11.90;99.90;;;;;;5076953;28;20044;-85
2023/03/29 09:30:07;;;;;;;4.20;1.50;;;11.90;99.90;;;;;;5076334;28;20048;-85
2023/03/29 09:32:45;;;;;;;4.47;1.70;;;11.90;99.90;;;;;;5061895;28;20211;-84
2023/03/29 09:35:13;;;;;;;3.92;1.30;;;11.90;99.90;;;;;;5076778;28;20044;-84
2023/03/29 09:37:40;;;;;;;4.45;1.30;;;11.90;99.90;;;;;;5067241;28;20043;-85
2023/03/29 09:40:07;;;;;;;4.18;1.33;;;12.00;99.90;;;;;;5062237;28;20135;-85
2023/03/29 09:42:47;;;;;;;3.65;1.50;;;12.00;99.90;;;;;;5055395;28;20378;-85
2023/03/29 09:45:13;;;;;;;5.28;1.58;;;12.10;99.90;;;;;;5059731;28;20106;-86
2023/03/29 09:47:46;;;;;;;5.53;1.42;;;12.20;99.90;;;;;;5060955;28;20043;-86
2023/03/29 09:50:13;;;;;;;3.22;1.20;;;12.20;99.90;;;;;;5076030;28;20131;-86
2023/03/29 09:52:56;;;;;;;3.05;1.20;;;12.10;99.90;;;;;;5075290;28;20082;-86
2023/03/29 09:55:26;;;;;;;3.92;1.45;;;12.10;99.90;;;;;;5074755;28;20056;-87
2023/03/29 09:58:00;;;;;;;4.57;1.58;;;12.10;99.90;;;;;;5076199;28;20044;-87
2023/03/29 10:00:32;;;;;;;3.33;1.35;;;12.20;99.90;;;;;;5076825;28;20040;-87
2023/03/29 10:02:58;;;;;;;4.80;1.40;;;12.30;99.90;;;;;;5074643;28;20113;-86
2023/03/29 10:05:36;;;;;;;3.40;1.30;;;12.30;99.90;;;;;;5061930;28;20530;-86
2023/03/29 10:08:08;;;;;;;4.82;1.63;;;12.40;99.90;;;;;;5078043;28;20127;-87
2023/03/29 10:10:35;;;;;;;4.95;1.60;;;12.40;99.90;;;;;;5076374;28;20264;-86
2023/03/29 10:13:02;;;;;;;3.95;1.58;;;12.50;99.90;;;;;;5060982;28;20139;-88
2023/03/29 10:15:29;;;;;;;3.60;1.48;;;12.60;99.90;;;;;;5076774;28;20480;-90
2023/03/29 10:18:03;;;;;;;5.22;1.70;;;12.60;99.90;;;;;;5076920;28;20048;-87
2023/03/29 10:20:33;;;;;;;4.32;1.73;;;12.60;99.90;;;;;;5077412;28;20043;-89
2023/03/29 10:23:10;;;;;;;4.63;1.85;;;12.70;99.90;;;;;;5075746;28;20044;-86
2023/03/29 10:26:12;;;;;;;5.55;2.10;;;12.80;99.90;;;;;;5069178;28;20044;-86
2023/03/29 10:28:39;;;;;;;6.88;2.50;;;12.90;99.90;;;;;;5075573;28;20063;-88
2023/03/29 10:31:11;;;;;;;7.50;3.10;;;12.80;99.90;;;;;;5060677;28;20246;-86
2023/03/29 10:34:26;;;;;;;8.00;3.17;;;12.70;99.90;;;;;;5075021;28;20032;-86
2023/03/29 10:40:23;;;;;;;6.40;2.45;;;12.60;99.90;;;;;;5088432;28;20083;-88
2023/03/29 10:42:53;;;;;;;7.78;2.85;;;12.60;99.90;;;;;;5076811;28;20386;-88
2023/03/29 10:45:21;;;;;;;7.75;2.53;;;12.50;99.90;;;;;;5061149;28;20073;-87
2023/03/29 10:47:49;;;;;;;7.78;2.42;;;12.50;99.90;;;;;;5076681;28;20083;-87
2023/03/29 10:50:16;;;;;;;10.50;3.15;;;12.50;99.90;;;;;;5059502;28;20448;-88
2023/03/29 10:52:42;;;;;;;7.20;3.00;;;12.50;99.90;;;;;;5076991;28;20136;-88
2023/03/29 10:55:09;;;;;;;8.50;2.95;;;12.40;99.90;;;;;;5063645;28;20040;-87
2023/03/29 10:57:36;;;;;;;9.63;2.97;;;12.40;99.90;;;;;;5079749;28;20447;-88
2023/03/29 11:00:05;;;;;;;7.30;2.50;;;12.40;99.90;;;;;;5064316;28;20105;-86
2023/03/29 11:02:32;;;;;;;8.93;2.90;;;12.40;99.90;;;;;;5062105;28;20043;-87
2023/03/29 11:04:59;;;;;;;6.97;3.05;;;12.40;99.90;;;;;;5081062;28;20059;-88
2023/03/29 11:07:27;;;;;;;9.27;3.10;;;12.40;99.90;;;;;;5080763;28;20055;-88
2023/03/29 11:09:54;;;;;;;9.10;3.08;;;12.40;99.90;;;;;;5079791;28;20043;-86
2023/03/29 11:12:22;;;;;;;11.88;3.13;;;12.40;99.90;;;;;;5064227;28;20055;-86
2023/03/29 11:14:49;;;;;;;8.75;3.00;;;12.40;99.90;;;;;;5064216;28;20055;-87
2023/03/29 11:17:17;;;;;;;8.43;3.08;;;12.40;99.90;;;;;;5079673;28;20497;-83
2023/03/29 11:19:44;;;;;;;14.68;4.00;;;12.40;99.90;;;;;;5063857;28;20040;-85
2023/03/29 11:22:11;;;;;;;12.13;3.72;;;12.40;99.90;;;;;;5079736;28;20048;-86
2023/03/29 11:24:38;;;;;;;11.43;4.57;;;12.40;99.90;;;;;;5080206;28;20048;-84
2023/03/29 11:27:06;;;;;;;9.30;3.65;;;12.40;99.90;;;;;;5080478;28;20356;-84
2023/03/29 11:29:32;;;;;;;13.38;3.58;;;12.50;99.90;;;;;;5097599;28;20072;-84
2023/03/29 11:31:59;;;;;;;11.30;5.03;;;12.50;99.90;;;;;;5080000;28;20054;-84
2023/03/29 11:34:26;;;;;;;14.68;4.25;;;12.60;99.90;;;;;;5080250;28;20040;-85
2023/03/29 11:36:54;;;;;;;11.00;3.85;;;12.70;99.90;;;;;;5081090;28;20048;-84
2023/03/29 11:39:21;;;;;;;8.77;3.30;;;12.90;99.90;;;;;;5118631;28;20043;-85
2023/03/29 11:41:48;;;;;;;11.02;3.20;;;12.90;99.90;;;;;;5083594;28;20075;-84
2023/03/29 11:44:17;;;;;;;9.13;3.03;;;13.00;99.90;;;;;;5099758;28;20054;-84
2023/03/29 11:49:17;;;;;;;;;;;13.20;99.90;;;;;;5107811;28;20044;-84
2023/03/29 11:51:44;;;;;;;11.65;3.22;;;13.30;99.90;;;;;;5076246;28;19920;-85
2023/03/29 11:54:11;;;;;;;11.40;2.88;;;13.30;99.90;;;;;;5062980;28;20044;-84
2023/03/29 11:59:26;;;;;;;13.32;3.75;;;13.40;99.90;;;;;;5079734;28;20043;-86
2023/03/29 12:01:52;;;;;;;16.38;4.00;;;13.40;99.90;;;;;;5079347;28;20047;-85
2023/03/29 12:04:21;;;;;;;13.60;4.15;;;13.40;99.90;;;;;;5061462;28;20051;-84
2023/03/29 12:09:52;;;;;;;10.65;3.67;;;13.40;99.90;;;;;;5096445;28;20046;-83
2023/03/29 12:12:19;;;;;;;18.58;4.05;;;13.50;99.90;;;;;;5079304;28;20048;-85
2023/03/29 12:14:46;;;;;;;9.80;3.72;;;13.50;99.90;;;;;;5079181;28;20405;-85
2023/03/29 12:19:44;;;;;;;12.20;3.20;;;13.40;99.90;;;;;;5096842;28;20044;-85
2023/03/29 12:22:10;;;;;;;15.23;3.67;;;13.50;99.90;;;;;;5078609;28;20047;-84
2023/03/29 12:24:41;;;;;;;11.55;3.28;;;13.70;99.90;;;;;;5078948;28;20059;-84
2023/03/29 12:27:10;;;;;;;11.75;3.35;;;13.90;99.90;;;;;;5079394;28;20044;-85
2023/03/29 12:29:39;;;;;;;14.18;3.25;;;14.10;99.90;;;;;;5073437;28;20091;-84
2023/03/29 12:32:08;;;;;;;15.70;4.40;;;14.30;99.90;;;;;;5070110;28;20044;-87
2023/03/29 12:34:45;;;;;;;15.32;3.35;;;14.50;99.90;;;;;;5046531;28;20041;-85
2023/03/29 12:37:29;;;;;;;10.73;3.22;;;14.50;99.90;;;;;;5073649;28;20055;-85
2023/03/29 12:40:15;;;;;;;14.18;3.08;;;14.40;99.90;;;;;;5081574;28;20576;-86
2023/03/29 12:43:01;;;;;;;9.38;2.50;;;14.40;99.90;;;;;;5081058;28;20188;-84
2023/03/29 12:45:47;;;;;;;8.52;2.30;;;14.20;99.90;;;;;;5096689;28;20386;-84
2023/03/29 12:48:14;;;;;;;13.77;2.97;;;14.10;99.90;;;;;;5061147;28;20074;-86
2023/03/29 12:50:41;;;;;;;12.27;2.67;;;14.00;99.90;;;;;;5077767;28;20036;-87
2023/03/29 12:53:08;;;;;;;16.52;3.20;;;14.10;99.90;;;;;;5078231;28;20047;-86
2023/03/29 12:55:34;;;;;;;9.27;3.38;;;14.20;99.90;;;;;;5077628;28;20147;-84
2023/03/29 12:58:01;;;;;;;12.50;2.63;;;14.20;99.90;;;;;;5078431;28;20044;-85
2023/03/29 13:00:28;;;;;;;17.98;4.15;;;14.30;99.90;;;;;;5061488;28;20036;-86
2023/03/29 13:02:55;;;;;;;12.55;2.47;;;14.40;99.90;;;;;;5060572;28;20466;-86
2023/03/29 13:05:22;;;;;;;9.18;2.50;;;14.40;99.90;;;;;;5061579;28;20055;-84
2023/03/29 13:07:51;;;;;;;8.25;2.85;;;14.40;99.90;;;;;;5078077;28;20139;-85
2023/03/29 13:10:18;;;;;;;13.32;2.88;;;14.30;99.90;;;;;;5095825;28;20335;-85
2023/03/29 13:12:45;;;;;;;11.00;2.55;;;14.30;99.90;;;;;;5095912;28;20059;-85
2023/03/29 13:15:12;;;;;;;11.25;2.80;;;14.40;99.90;;;;;;5077216;28;20044;-88
2023/03/29 13:17:38;;;;;;;17.05;2.90;;;14.30;99.90;;;;;;5076767;28;20466;-85
2023/03/29 13:20:06;;;;;;;7.68;2.80;;;14.30;99.90;;;;;;5078250;28;20044;-85